sensor_id;sensor_type;location;lat;lon;timestamp;P1;durP1;ratioP1;P2;durP2;ratioP2
21786;SDS011;11055;50.870;4.316;2024-02-23T00:02:17;3.78;;;0.95;;
21786;SDS011;11055;50.870;4.316;2024-02-23T00:04:43;2.90;;;0.90;;
21786;SDS011;11055;50.870;4.316;2024-02-23T00:07:10;6.75;;;1.10;;
21786;SDS011;11055;50.870;4.316;2024-02-23T00:09:36;4.38;;;0.90;;
21786;SDS011;11055;50.870;4.316;2024-02-23T00:12:02;4.55;;;1.10;;
21786;SDS011;11055;50.870;4.316;2024-02-23T00:14:29;4.72;;;1.10;;
21786;SDS011;11055;50.870;4.316;2024-02-23T00:16:56;3.90;;;0.98;;
21786;SDS011;11055;50.870;4.316;2024-02-23T00:19:22;4.55;;;1.55;;
21786;SDS011;11055;50.870;4.316;2024-02-23T00:21:49;4.63;;;0.93;;
21786;SDS011;11055;50.870;4.316;2024-02-23T00:24:15;3.72;;;1.00;;
21786;SDS011;11055;50.870;4.316;2024-02-23T00:26:42;2.95;;;0.80;;
21786;SDS011;11055;50.870;4.316;2024-02-23T00:29:08;3.90;;;0.82;;
21786;SDS011;11055;50.870;4.316;2024-02-23T00:31:34;4.32;;;0.88;;
21786;SDS011;11055;50.870;4.316;2024-02-23T00:34:02;3.45;;;0.70;;
21786;SDS011;11055;50.870;4.316;2024-02-23T00:36:28;4.25;;;0.88;;
21786;SDS011;11055;50.870;4.316;2024-02-23T00:38:54;1.67;;;0.70;;
21786;SDS011;11055;50.870;4.316;2024-02-23T00:41:20;2.03;;;0.77;;
21786;SDS011;11055;50.870;4.316;2024-02-23T00:43:45;5.63;;;0.82;;
21786;SDS011;11055;50.870;4.316;2024-02-23T00:46:12;4.15;;;0.93;;
21786;SDS011;11055;50.870;4.316;2024-02-23T00:48:39;2.25;;;0.60;;
21786;SDS011;11055;50.870;4.316;2024-02-23T00:51:05;3.15;;;1.00;;
21786;SDS011;11055;50.870;4.316;2024-02-23T00:53:31;3.05;;;0.63;;
21786;SDS011;11055;50.870;4.316;2024-02-23T00:55:57;1.80;;;0.80;;
21786;SDS011;11055;50.870;4.316;2024-02-23T00:58:22;3.55;;;0.90;;
21786;SDS011;11055;50.870;4.316;2024-02-23T01:00:48;2.95;;;0.77;;
21786;SDS011;11055;50.870;4.316;2024-02-23T01:03:14;2.35;;;0.85;;
21786;SDS011;11055;50.870;4.316;2024-02-23T01:05:39;4.05;;;0.80;;
21786;SDS011;11055;50.870;4.316;2024-02-23T01:08:07;6.97;;;1.27;;
21786;SDS011;11055;50.870;4.316;2024-02-23T01:10:33;4.13;;;1.00;;
21786;SDS011;11055;50.870;4.316;2024-02-23T01:12:59;5.00;;;0.95;;
21786;SDS011;11055;50.870;4.316;2024-02-23T01:15:25;2.55;;;0.90;;
21786;SDS011;11055;50.870;4.316;2024-02-23T01:17:50;3.30;;;0.93;;
21786;SDS011;11055;50.870;4.316;2024-02-23T01:20:16;3.17;;;1.15;;
21786;SDS011;11055;50.870;4.316;2024-02-23T01:22:42;3.88;;;1.05;;
21786;SDS011;11055;50.870;4.316;2024-02-23T01:25:09;3.00;;;0.82;;
21786;SDS011;11055;50.870;4.316;2024-02-23T01:27:35;3.58;;;0.82;;
21786;SDS011;11055;50.870;4.316;2024-02-23T01:30:00;3.83;;;0.93;;
21786;SDS011;11055;50.870;4.316;2024-02-23T01:32:26;2.13;;;0.80;;
21786;SDS011;11055;50.870;4.316;2024-02-23T01:34:52;4.00;;;1.17;;
21786;SDS011;11055;50.870;4.316;2024-02-23T01:37:17;4.65;;;0.77;;
21786;SDS011;11055;50.870;4.316;2024-02-23T01:39:43;3.45;;;0.95;;
21786;SDS011;11055;50.870;4.316;2024-02-23T01:42:09;3.83;;;0.82;;
21786;SDS011;11055;50.870;4.316;2024-02-23T01:44:35;4.00;;;0.68;;
21786;SDS011;11055;50.870;4.316;2024-02-23T01:47:02;5.03;;;1.00;;
21786;SDS011;11055;50.870;4.316;2024-02-23T01:49:28;4.28;;;1.00;;
21786;SDS011;11055;50.870;4.316;2024-02-23T01:51:58;3.30;;;1.00;;
21786;SDS011;11055;50.870;4.316;2024-02-23T01:54:28;6.60;;;0.75;;
21786;SDS011;11055;50.870;4.316;2024-02-23T01:56:55;6.15;;;1.02;;
21786;SDS011;11055;50.870;4.316;2024-02-23T01:59:25;2.35;;;1.00;;
21786;SDS011;11055;50.870;4.316;2024-02-23T02:01:52;3.83;;;1.08;;
21786;SDS011;11055;50.870;4.316;2024-02-23T02:04:18;5.70;;;1.20;;
21786;SDS011;11055;50.870;4.316;2024-02-23T02:06:45;4.18;;;1.27;;
21786;SDS011;11055;50.870;4.316;2024-02-23T02:09:11;3.42;;;1.00;;
21786;SDS011;11055;50.870;4.316;2024-02-23T02:11:49;5.25;;;1.25;;
21786;SDS011;11055;50.870;4.316;2024-02-23T02:14:15;4.93;;;1.27;;
21786;SDS011;11055;50.870;4.316;2024-02-23T02:16:42;5.53;;;1.40;;
21786;SDS011;11055;50.870;4.316;2024-02-23T02:19:09;6.97;;;1.33;;
21786;SDS011;11055;50.870;4.316;2024-02-23T02:21:35;4.32;;;1.40;;
21786;SDS011;11055;50.870;4.316;2024-02-23T02:24:02;8.80;;;1.27;;
21786;SDS011;11055;50.870;4.316;2024-02-23T02:26:28;5.53;;;1.48;;
21786;SDS011;11055;50.870;4.316;2024-02-23T02:28:54;3.78;;;1.00;;
21786;SDS011;11055;50.870;4.316;2024-02-23T02:31:20;5.25;;;1.33;;
21786;SDS011;11055;50.870;4.316;2024-02-23T02:33:46;4.07;;;0.93;;
21786;SDS011;11055;50.870;4.316;2024-02-23T02:36:11;7.20;;;1.67;;
21786;SDS011;11055;50.870;4.316;2024-02-23T02:38:37;5.45;;;1.40;;
21786;SDS011;11055;50.870;4.316;2024-02-23T02:41:03;6.07;;;1.15;;
21786;SDS011;11055;50.870;4.316;2024-02-23T02:43:30;6.90;;;1.20;;
21786;SDS011;11055;50.870;4.316;2024-02-23T02:45:56;6.20;;;1.40;;
21786;SDS011;11055;50.870;4.316;2024-02-23T02:48:23;3.72;;;0.88;;
21786;SDS011;11055;50.870;4.316;2024-02-23T02:50:49;6.35;;;1.77;;
21786;SDS011;11055;50.870;4.316;2024-02-23T02:53:16;6.60;;;1.60;;
21786;SDS011;11055;50.870;4.316;2024-02-23T02:55:42;6.95;;;1.48;;
21786;SDS011;11055;50.870;4.316;2024-02-23T02:58:08;10.32;;;2.80;;
21786;SDS011;11055;50.870;4.316;2024-02-23T03:00:34;7.25;;;1.50;;
21786;SDS011;11055;50.870;4.316;2024-02-23T03:03:00;6.90;;;1.60;;
21786;SDS011;11055;50.870;4.316;2024-02-23T03:05:25;4.68;;;1.33;;
21786;SDS011;11055;50.870;4.316;2024-02-23T03:07:51;3.53;;;1.35;;
21786;SDS011;11055;50.870;4.316;2024-02-23T03:10:17;6.68;;;1.45;;
21786;SDS011;11055;50.870;4.316;2024-02-23T03:12:43;4.28;;;1.13;;
21786;SDS011;11055;50.870;4.316;2024-02-23T03:15:08;5.53;;;1.00;;
21786;SDS011;11055;50.870;4.316;2024-02-23T03:17:37;2.65;;;1.02;;
21786;SDS011;11055;50.870;4.316;2024-02-23T03:20:03;4.38;;;1.30;;
21786;SDS011;11055;50.870;4.316;2024-02-23T03:22:36;5.13;;;1.08;;
21786;SDS011;11055;50.870;4.316;2024-02-23T03:25:03;4.25;;;1.42;;
21786;SDS011;11055;50.870;4.316;2024-02-23T03:27:33;6.95;;;1.17;;
21786;SDS011;11055;50.870;4.316;2024-02-23T03:30:01;6.30;;;1.25;;
21786;SDS011;11055;50.870;4.316;2024-02-23T03:32:30;5.82;;;1.27;;
21786;SDS011;11055;50.870;4.316;2024-02-23T03:35:01;5.25;;;1.10;;
21786;SDS011;11055;50.870;4.316;2024-02-23T03:37:31;5.70;;;1.15;;
21786;SDS011;11055;50.870;4.316;2024-02-23T03:39:56;4.60;;;1.05;;
21786;SDS011;11055;50.870;4.316;2024-02-23T03:42:22;4.38;;;1.20;;
21786;SDS011;11055;50.870;4.316;2024-02-23T03:44:48;5.93;;;1.17;;
21786;SDS011;11055;50.870;4.316;2024-02-23T03:47:14;7.07;;;1.40;;
21786;SDS011;11055;50.870;4.316;2024-02-23T03:49:41;6.28;;;1.42;;
21786;SDS011;11055;50.870;4.316;2024-02-23T03:52:06;7.68;;;1.27;;
21786;SDS011;11055;50.870;4.316;2024-02-23T03:54:32;6.15;;;1.35;;
21786;SDS011;11055;50.870;4.316;2024-02-23T03:56:57;6.30;;;1.15;;
21786;SDS011;11055;50.870;4.316;2024-02-23T03:59:23;6.70;;;1.27;;
21786;SDS011;11055;50.870;4.316;2024-02-23T04:01:49;8.55;;;1.27;;
21786;SDS011;11055;50.870;4.316;2024-02-23T04:04:15;4.68;;;1.05;;
21786;SDS011;11055;50.870;4.316;2024-02-23T04:06:40;9.38;;;1.45;;
21786;SDS011;11055;50.870;4.316;2024-02-23T04:09:06;6.63;;;1.83;;
21786;SDS011;11055;50.870;4.316;2024-02-23T04:11:33;10.05;;;1.58;;
21786;SDS011;11055;50.870;4.316;2024-02-23T04:14:01;9.45;;;2.22;;
21786;SDS011;11055;50.870;4.316;2024-02-23T04:16:27;5.82;;;1.42;;
21786;SDS011;11055;50.870;4.316;2024-02-23T04:18:53;8.77;;;1.50;;
21786;SDS011;11055;50.870;4.316;2024-02-23T04:21:19;5.93;;;1.70;;
21786;SDS011;11055;50.870;4.316;2024-02-23T04:23:45;10.10;;;2.30;;
21786;SDS011;11055;50.870;4.316;2024-02-23T04:26:11;5.30;;;2.10;;
21786;SDS011;11055;50.870;4.316;2024-02-23T04:28:39;8.57;;;3.28;;
21786;SDS011;11055;50.870;4.316;2024-02-23T04:31:05;8.02;;;1.85;;
21786;SDS011;11055;50.870;4.316;2024-02-23T04:33:31;7.82;;;1.65;;
21786;SDS011;11055;50.870;4.316;2024-02-23T04:35:57;6.88;;;1.42;;
21786;SDS011;11055;50.870;4.316;2024-02-23T04:38:23;10.40;;;2.03;;
21786;SDS011;11055;50.870;4.316;2024-02-23T04:40:49;6.50;;;1.15;;
21786;SDS011;11055;50.870;4.316;2024-02-23T04:43:16;7.35;;;1.45;;
21786;SDS011;11055;50.870;4.316;2024-02-23T04:45:41;7.78;;;1.70;;
21786;SDS011;11055;50.870;4.316;2024-02-23T04:48:07;7.30;;;1.33;;
21786;SDS011;11055;50.870;4.316;2024-02-23T04:50:33;8.07;;;1.88;;
21786;SDS011;11055;50.870;4.316;2024-02-23T04:52:59;7.35;;;1.55;;
21786;SDS011;11055;50.870;4.316;2024-02-23T04:55:26;7.85;;;1.50;;
21786;SDS011;11055;50.870;4.316;2024-02-23T04:57:51;6.72;;;1.40;;
21786;SDS011;11055;50.870;4.316;2024-02-23T05:00:17;4.18;;;1.10;;
21786;SDS011;11055;50.870;4.316;2024-02-23T05:02:43;10.15;;;1.77;;
21786;SDS011;11055;50.870;4.316;2024-02-23T05:05:09;7.13;;;1.30;;
21786;SDS011;11055;50.870;4.316;2024-02-23T05:07:34;9.20;;;1.58;;
21786;SDS011;11055;50.870;4.316;2024-02-23T05:10:00;9.38;;;1.60;;
21786;SDS011;11055;50.870;4.316;2024-02-23T05:12:26;7.15;;;1.63;;
21786;SDS011;11055;50.870;4.316;2024-02-23T05:14:51;3.40;;;1.35;;
21786;SDS011;11055;50.870;4.316;2024-02-23T05:17:17;6.45;;;1.98;;
21786;SDS011;11055;50.870;4.316;2024-02-23T05:19:43;5.88;;;1.95;;
21786;SDS011;11055;50.870;4.316;2024-02-23T05:22:08;7.80;;;2.22;;
21786;SDS011;11055;50.870;4.316;2024-02-23T05:24:34;8.38;;;2.40;;
21786;SDS011;11055;50.870;4.316;2024-02-23T05:27:00;9.20;;;2.63;;
21786;SDS011;11055;50.870;4.316;2024-02-23T05:29:27;5.85;;;2.42;;
21786;SDS011;11055;50.870;4.316;2024-02-23T05:31:53;7.07;;;2.35;;
21786;SDS011;11055;50.870;4.316;2024-02-23T05:34:20;7.05;;;1.92;;
21786;SDS011;11055;50.870;4.316;2024-02-23T05:36:46;5.40;;;1.95;;
21786;SDS011;11055;50.870;4.316;2024-02-23T05:39:12;9.00;;;1.85;;
21786;SDS011;11055;50.870;4.316;2024-02-23T05:41:40;8.05;;;2.10;;
21786;SDS011;11055;50.870;4.316;2024-02-23T05:44:06;4.18;;;1.67;;
21786;SDS011;11055;50.870;4.316;2024-02-23T05:46:36;9.13;;;2.22;;
21786;SDS011;11055;50.870;4.316;2024-02-23T05:49:02;7.47;;;1.90;;
21786;SDS011;11055;50.870;4.316;2024-02-23T05:51:31;8.10;;;2.10;;
21786;SDS011;11055;50.870;4.316;2024-02-23T05:53:57;5.90;;;2.15;;
21786;SDS011;11055;50.870;4.316;2024-02-23T05:56:23;7.82;;;2.28;;
21786;SDS011;11055;50.870;4.316;2024-02-23T05:58:49;7.47;;;2.03;;
21786;SDS011;11055;50.870;4.316;2024-02-23T06:01:16;4.45;;;1.77;;
21786;SDS011;11055;50.870;4.316;2024-02-23T06:03:43;8.07;;;1.60;;
21786;SDS011;11055;50.870;4.316;2024-02-23T06:06:09;9.82;;;1.90;;
21786;SDS011;11055;50.870;4.316;2024-02-23T06:08:35;9.40;;;2.17;;
21786;SDS011;11055;50.870;4.316;2024-02-23T06:11:02;6.50;;;2.30;;
21786;SDS011;11055;50.870;4.316;2024-02-23T06:13:29;7.95;;;2.22;;
21786;SDS011;11055;50.870;4.316;2024-02-23T06:15:59;8.25;;;1.77;;
21786;SDS011;11055;50.870;4.316;2024-02-23T06:18:25;8.98;;;2.08;;
21786;SDS011;11055;50.870;4.316;2024-02-23T06:20:50;10.77;;;2.00;;
21786;SDS011;11055;50.870;4.316;2024-02-23T06:23:16;8.35;;;2.03;;
21786;SDS011;11055;50.870;4.316;2024-02-23T06:25:42;9.55;;;1.65;;
21786;SDS011;11055;50.870;4.316;2024-02-23T06:28:11;11.93;;;2.00;;
21786;SDS011;11055;50.870;4.316;2024-02-23T06:30:37;6.68;;;1.90;;
21786;SDS011;11055;50.870;4.316;2024-02-23T06:33:02;5.57;;;1.70;;
21786;SDS011;11055;50.870;4.316;2024-02-23T06:35:29;8.20;;;1.92;;
21786;SDS011;11055;50.870;4.316;2024-02-23T06:37:56;7.93;;;2.20;;
21786;SDS011;11055;50.870;4.316;2024-02-23T06:40:21;7.10;;;1.63;;
21786;SDS011;11055;50.870;4.316;2024-02-23T06:42:50;8.35;;;2.13;;
21786;SDS011;11055;50.870;4.316;2024-02-23T06:45:15;7.65;;;1.90;;
21786;SDS011;11055;50.870;4.316;2024-02-23T06:47:41;5.93;;;1.70;;
21786;SDS011;11055;50.870;4.316;2024-02-23T06:50:09;6.22;;;1.77;;
21786;SDS011;11055;50.870;4.316;2024-02-23T06:52:35;8.40;;;1.60;;
21786;SDS011;11055;50.870;4.316;2024-02-23T06:55:02;8.10;;;1.63;;
21786;SDS011;11055;50.870;4.316;2024-02-23T06:57:28;13.20;;;2.47;;
21786;SDS011;11055;50.870;4.316;2024-02-23T06:59:55;8.25;;;1.92;;
21786;SDS011;11055;50.870;4.316;2024-02-23T07:02:21;10.27;;;1.70;;
21786;SDS011;11055;50.870;4.316;2024-02-23T07:04:48;4.32;;;1.58;;
21786;SDS011;11055;50.870;4.316;2024-02-23T07:07:15;10.63;;;1.95;;
21786;SDS011;11055;50.870;4.316;2024-02-23T07:09:41;9.52;;;1.90;;
21786;SDS011;11055;50.870;4.316;2024-02-23T07:12:06;8.00;;;1.50;;
21786;SDS011;11055;50.870;4.316;2024-02-23T07:14:32;10.43;;;1.83;;
21786;SDS011;11055;50.870;4.316;2024-02-23T07:16:58;10.63;;;2.03;;
21786;SDS011;11055;50.870;4.316;2024-02-23T07:19:25;7.40;;;2.00;;
21786;SDS011;11055;50.870;4.316;2024-02-23T07:21:50;9.60;;;2.20;;
21786;SDS011;11055;50.870;4.316;2024-02-23T07:24:16;12.27;;;1.98;;
21786;SDS011;11055;50.870;4.316;2024-02-23T07:26:42;9.77;;;1.90;;
21786;SDS011;11055;50.870;4.316;2024-02-23T07:29:08;8.27;;;2.17;;
21786;SDS011;11055;50.870;4.316;2024-02-23T07:31:34;10.48;;;1.95;;
21786;SDS011;11055;50.870;4.316;2024-02-23T07:33:59;8.20;;;1.67;;
21786;SDS011;11055;50.870;4.316;2024-02-23T07:36:25;10.30;;;1.80;;
21786;SDS011;11055;50.870;4.316;2024-02-23T07:38:51;9.98;;;2.42;;
21786;SDS011;11055;50.870;4.316;2024-02-23T07:41:16;10.95;;;1.67;;
21786;SDS011;11055;50.870;4.316;2024-02-23T07:43:45;8.65;;;1.63;;
21786;SDS011;11055;50.870;4.316;2024-02-23T07:46:11;8.60;;;1.98;;
21786;SDS011;11055;50.870;4.316;2024-02-23T07:48:37;8.02;;;1.80;;
21786;SDS011;11055;50.870;4.316;2024-02-23T07:51:03;6.75;;;1.70;;
21786;SDS011;11055;50.870;4.316;2024-02-23T07:53:30;6.07;;;1.92;;
21786;SDS011;11055;50.870;4.316;2024-02-23T07:55:56;7.28;;;1.77;;
21786;SDS011;11055;50.870;4.316;2024-02-23T07:58:24;9.35;;;2.25;;
21786;SDS011;11055;50.870;4.316;2024-02-23T08:00:51;10.93;;;1.90;;
21786;SDS011;11055;50.870;4.316;2024-02-23T08:03:17;11.13;;;1.80;;
21786;SDS011;11055;50.870;4.316;2024-02-23T08:05:43;8.52;;;1.60;;
21786;SDS011;11055;50.870;4.316;2024-02-23T08:08:09;11.15;;;2.03;;
21786;SDS011;11055;50.870;4.316;2024-02-23T08:10:35;8.50;;;2.00;;
21786;SDS011;11055;50.870;4.316;2024-02-23T08:13:01;7.40;;;1.95;;
21786;SDS011;11055;50.870;4.316;2024-02-23T08:15:27;5.80;;;1.73;;
21786;SDS011;11055;50.870;4.316;2024-02-23T08:17:53;14.15;;;4.55;;
21786;SDS011;11055;50.870;4.316;2024-02-23T08:20:18;6.80;;;2.00;;
21786;SDS011;11055;50.870;4.316;2024-02-23T08:22:44;8.55;;;1.85;;
21786;SDS011;11055;50.870;4.316;2024-02-23T08:25:10;6.93;;;2.25;;
21786;SDS011;11055;50.870;4.316;2024-02-23T08:27:35;5.07;;;1.33;;
21786;SDS011;11055;50.870;4.316;2024-02-23T08:30:01;9.98;;;1.90;;
21786;SDS011;11055;50.870;4.316;2024-02-23T08:32:27;5.13;;;1.83;;
21786;SDS011;11055;50.870;4.316;2024-02-23T08:34:53;4.82;;;1.65;;
21786;SDS011;11055;50.870;4.316;2024-02-23T08:37:24;7.65;;;1.67;;
21786;SDS011;11055;50.870;4.316;2024-02-23T08:39:50;8.82;;;1.88;;
21786;SDS011;11055;50.870;4.316;2024-02-23T08:42:16;7.00;;;1.75;;
21786;SDS011;11055;50.870;4.316;2024-02-23T08:44:42;11.95;;;1.80;;
21786;SDS011;11055;50.870;4.316;2024-02-23T08:47:07;8.15;;;2.03;;
21786;SDS011;11055;50.870;4.316;2024-02-23T08:49:33;7.30;;;1.58;;
21786;SDS011;11055;50.870;4.316;2024-02-23T08:51:59;7.68;;;2.03;;
21786;SDS011;11055;50.870;4.316;2024-02-23T08:54:24;8.20;;;2.47;;
21786;SDS011;11055;50.870;4.316;2024-02-23T08:56:50;9.95;;;2.08;;
21786;SDS011;11055;50.870;4.316;2024-02-23T08:59:16;7.90;;;1.95;;
21786;SDS011;11055;50.870;4.316;2024-02-23T09:01:43;5.57;;;1.92;;
21786;SDS011;11055;50.870;4.316;2024-02-23T09:04:15;8.02;;;2.15;;
21786;SDS011;11055;50.870;4.316;2024-02-23T09:06:41;8.32;;;2.67;;
21786;SDS011;11055;50.870;4.316;2024-02-23T09:09:07;8.05;;;2.30;;
21786;SDS011;11055;50.870;4.316;2024-02-23T09:11:33;4.68;;;1.55;;
21786;SDS011;11055;50.870;4.316;2024-02-23T09:13:59;5.90;;;1.80;;
21786;SDS011;11055;50.870;4.316;2024-02-23T09:16:25;12.90;;;2.08;;
21786;SDS011;11055;50.870;4.316;2024-02-23T09:18:50;8.60;;;1.90;;
21786;SDS011;11055;50.870;4.316;2024-02-23T09:21:16;4.97;;;1.73;;
21786;SDS011;11055;50.870;4.316;2024-02-23T09:23:42;8.35;;;2.17;;
21786;SDS011;11055;50.870;4.316;2024-02-23T09:26:11;5.95;;;1.88;;
21786;SDS011;11055;50.870;4.316;2024-02-23T09:28:37;6.30;;;1.98;;
21786;SDS011;11055;50.870;4.316;2024-02-23T09:31:03;4.18;;;2.03;;
21786;SDS011;11055;50.870;4.316;2024-02-23T09:33:29;9.68;;;2.40;;
21786;SDS011;11055;50.870;4.316;2024-02-23T09:35:56;7.47;;;2.00;;
21786;SDS011;11055;50.870;4.316;2024-02-23T09:38:22;8.50;;;2.30;;
21786;SDS011;11055;50.870;4.316;2024-02-23T09:41:12;6.10;;;2.03;;
21786;SDS011;11055;50.870;4.316;2024-02-23T09:43:46;5.43;;;2.58;;
21786;SDS011;11055;50.870;4.316;2024-02-23T09:46:14;7.25;;;2.55;;
21786;SDS011;11055;50.870;4.316;2024-02-23T09:48:41;8.75;;;2.53;;
21786;SDS011;11055;50.870;4.316;2024-02-23T09:51:08;7.72;;;2.53;;
21786;SDS011;11055;50.870;4.316;2024-02-23T09:53:36;10.27;;;2.45;;
21786;SDS011;11055;50.870;4.316;2024-02-23T09:56:03;10.43;;;2.47;;
21786;SDS011;11055;50.870;4.316;2024-02-23T09:58:30;10.95;;;2.80;;
21786;SDS011;11055;50.870;4.316;2024-02-23T10:00:58;7.47;;;2.88;;
21786;SDS011;11055;50.870;4.316;2024-02-23T10:03:27;7.80;;;2.30;;
21786;SDS011;11055;50.870;4.316;2024-02-23T10:05:58;11.43;;;2.58;;
21786;SDS011;11055;50.870;4.316;2024-02-23T10:08:30;5.30;;;1.77;;
21786;SDS011;11055;50.870;4.316;2024-02-23T10:10:56;4.90;;;1.55;;
21786;SDS011;11055;50.870;4.316;2024-02-23T10:13:22;6.13;;;1.92;;
21786;SDS011;11055;50.870;4.316;2024-02-23T10:15:52;6.80;;;1.77;;
21786;SDS011;11055;50.870;4.316;2024-02-23T10:18:18;7.40;;;1.20;;
21786;SDS011;11055;50.870;4.316;2024-02-23T10:20:45;7.50;;;1.75;;
21786;SDS011;11055;50.870;4.316;2024-02-23T10:23:15;6.18;;;1.60;;
21786;SDS011;11055;50.870;4.316;2024-02-23T10:25:41;7.95;;;1.73;;
21786;SDS011;11055;50.870;4.316;2024-02-23T10:28:07;5.03;;;1.67;;
21786;SDS011;11055;50.870;4.316;2024-02-23T10:30:33;5.28;;;1.70;;
21786;SDS011;11055;50.870;4.316;2024-02-23T10:33:01;8.98;;;1.90;;
21786;SDS011;11055;50.870;4.316;2024-02-23T10:35:30;8.30;;;1.88;;
21786;SDS011;11055;50.870;4.316;2024-02-23T10:38:00;4.68;;;1.70;;
21786;SDS011;11055;50.870;4.316;2024-02-23T10:40:29;7.22;;;1.88;;
21786;SDS011;11055;50.870;4.316;2024-02-23T10:43:01;6.00;;;1.60;;
21786;SDS011;11055;50.870;4.316;2024-02-23T10:45:30;6.20;;;1.85;;
21786;SDS011;11055;50.870;4.316;2024-02-23T10:47:57;7.47;;;1.70;;
21786;SDS011;11055;50.870;4.316;2024-02-23T10:50:24;3.40;;;1.33;;
21786;SDS011;11055;50.870;4.316;2024-02-23T10:52:51;6.70;;;1.67;;
21786;SDS011;11055;50.870;4.316;2024-02-23T10:55:17;8.88;;;2.38;;
21786;SDS011;11055;50.870;4.316;2024-02-23T10:57:43;5.57;;;1.50;;
21786;SDS011;11055;50.870;4.316;2024-02-23T11:00:09;5.13;;;1.42;;
21786;SDS011;11055;50.870;4.316;2024-02-23T11:02:38;4.78;;;1.40;;
21786;SDS011;11055;50.870;4.316;2024-02-23T11:05:06;4.80;;;1.65;;
21786;SDS011;11055;50.870;4.316;2024-02-23T11:07:37;8.50;;;1.80;;
21786;SDS011;11055;50.870;4.316;2024-02-23T11:10:06;5.43;;;1.55;;
21786;SDS011;11055;50.870;4.316;2024-02-23T11:12:34;5.72;;;2.00;;
21786;SDS011;11055;50.870;4.316;2024-02-23T11:15:01;7.30;;;2.47;;
21786;SDS011;11055;50.870;4.316;2024-02-23T11:17:27;9.23;;;1.55;;
21786;SDS011;11055;50.870;4.316;2024-02-23T11:19:55;7.28;;;1.98;;
21786;SDS011;11055;50.870;4.316;2024-02-23T11:22:40;8.75;;;2.08;;
21786;SDS011;11055;50.870;4.316;2024-02-23T11:25:07;6.10;;;1.60;;
21786;SDS011;11055;50.870;4.316;2024-02-23T11:27:34;10.02;;;2.20;;
21786;SDS011;11055;50.870;4.316;2024-02-23T11:30:07;11.65;;;2.17;;
21786;SDS011;11055;50.870;4.316;2024-02-23T11:32:38;6.65;;;1.90;;
21786;SDS011;11055;50.870;4.316;2024-02-23T11:35:08;11.20;;;2.65;;
21786;SDS011;11055;50.870;4.316;2024-02-23T11:40:28;5.93;;;2.00;;
21786;SDS011;11055;50.870;4.316;2024-02-23T11:42:57;9.40;;;1.90;;
21786;SDS011;11055;50.870;4.316;2024-02-23T11:45:25;5.03;;;2.20;;
21786;SDS011;11055;50.870;4.316;2024-02-23T11:47:52;5.53;;;1.92;;
21786;SDS011;11055;50.870;4.316;2024-02-23T11:50:18;6.18;;;1.40;;
21786;SDS011;11055;50.870;4.316;2024-02-23T11:52:47;6.47;;;1.50;;
21786;SDS011;11055;50.870;4.316;2024-02-23T11:55:18;3.58;;;1.05;;
21786;SDS011;11055;50.870;4.316;2024-02-23T11:57:47;5.72;;;1.40;;
21786;SDS011;11055;50.870;4.316;2024-02-23T12:00:13;3.38;;;1.38;;
21786;SDS011;11055;50.870;4.316;2024-02-23T12:02:40;4.47;;;1.38;;
21786;SDS011;11055;50.870;4.316;2024-02-23T12:05:05;6.82;;;1.48;;
21786;SDS011;11055;50.870;4.316;2024-02-23T12:07:32;5.40;;;1.40;;
21786;SDS011;11055;50.870;4.316;2024-02-23T12:09:59;5.28;;;1.20;;
21786;SDS011;11055;50.870;4.316;2024-02-23T12:12:25;6.38;;;1.58;;
21786;SDS011;11055;50.870;4.316;2024-02-23T12:14:51;4.10;;;1.20;;
21786;SDS011;11055;50.870;4.316;2024-02-23T12:17:17;5.28;;;1.33;;
21786;SDS011;11055;50.870;4.316;2024-02-23T12:19:43;4.85;;;1.50;;
21786;SDS011;11055;50.870;4.316;2024-02-23T12:22:12;4.97;;;1.70;;
21786;SDS011;11055;50.870;4.316;2024-02-23T12:24:38;6.53;;;1.90;;
21786;SDS011;11055;50.870;4.316;2024-02-23T12:27:06;6.05;;;1.77;;
21786;SDS011;11055;50.870;4.316;2024-02-23T12:29:32;9.10;;;1.55;;
21786;SDS011;11055;50.870;4.316;2024-02-23T12:32:04;5.82;;;1.40;;
21786;SDS011;11055;50.870;4.316;2024-02-23T12:34:30;4.85;;;1.67;;
21786;SDS011;11055;50.870;4.316;2024-02-23T12:36:56;4.65;;;1.02;;
21786;SDS011;11055;50.870;4.316;2024-02-23T12:39:22;8.43;;;1.33;;
21786;SDS011;11055;50.870;4.316;2024-02-23T12:41:48;4.03;;;1.05;;
21786;SDS011;11055;50.870;4.316;2024-02-23T12:44:13;6.22;;;1.40;;
21786;SDS011;11055;50.870;4.316;2024-02-23T12:46:39;10.57;;;1.50;;
21786;SDS011;11055;50.870;4.316;2024-02-23T12:49:05;5.57;;;1.15;;
21786;SDS011;11055;50.870;4.316;2024-02-23T12:51:31;7.75;;;1.67;;
21786;SDS011;11055;50.870;4.316;2024-02-23T12:53:57;6.13;;;1.33;;
21786;SDS011;11055;50.870;4.316;2024-02-23T12:56:22;5.38;;;1.60;;
21786;SDS011;11055;50.870;4.316;2024-02-23T12:58:50;5.32;;;2.10;;
21786;SDS011;11055;50.870;4.316;2024-02-23T13:01:15;6.38;;;1.88;;
21786;SDS011;11055;50.870;4.316;2024-02-23T13:03:41;7.63;;;2.40;;
21786;SDS011;11055;50.870;4.316;2024-02-23T13:06:07;8.85;;;3.22;;
21786;SDS011;11055;50.870;4.316;2024-02-23T13:08:32;5.90;;;2.13;;
21786;SDS011;11055;50.870;4.316;2024-02-23T13:10:59;9.68;;;2.83;;
21786;SDS011;11055;50.870;4.316;2024-02-23T13:13:25;6.00;;;2.53;;
21786;SDS011;11055;50.870;4.316;2024-02-23T13:15:51;6.93;;;2.67;;
21786;SDS011;11055;50.870;4.316;2024-02-23T13:18:18;9.82;;;2.70;;
21786;SDS011;11055;50.870;4.316;2024-02-23T13:20:44;8.68;;;3.15;;
21786;SDS011;11055;50.870;4.316;2024-02-23T13:23:10;8.18;;;3.53;;
21786;SDS011;11055;50.870;4.316;2024-02-23T13:25:37;8.30;;;2.42;;
21786;SDS011;11055;50.870;4.316;2024-02-23T13:28:04;7.72;;;3.05;;
21786;SDS011;11055;50.870;4.316;2024-02-23T13:30:31;9.63;;;3.05;;
21786;SDS011;11055;50.870;4.316;2024-02-23T13:32:57;8.77;;;3.15;;
21786;SDS011;11055;50.870;4.316;2024-02-23T13:35:23;6.18;;;2.83;;
21786;SDS011;11055;50.870;4.316;2024-02-23T13:37:49;7.80;;;2.40;;
21786;SDS011;11055;50.870;4.316;2024-02-23T13:40:15;6.18;;;2.03;;
21786;SDS011;11055;50.870;4.316;2024-02-23T13:42:41;11.15;;;2.92;;
21786;SDS011;11055;50.870;4.316;2024-02-23T13:45:08;6.35;;;3.08;;
21786;SDS011;11055;50.870;4.316;2024-02-23T13:47:35;9.68;;;2.92;;
21786;SDS011;11055;50.870;4.316;2024-02-23T13:50:01;9.27;;;2.78;;
21786;SDS011;11055;50.870;4.316;2024-02-23T13:52:27;9.23;;;3.17;;
21786;SDS011;11055;50.870;4.316;2024-02-23T13:54:53;4.25;;;2.30;;
21786;SDS011;11055;50.870;4.316;2024-02-23T13:57:19;7.82;;;2.35;;
21786;SDS011;11055;50.870;4.316;2024-02-23T13:59:45;11.23;;;2.60;;
21786;SDS011;11055;50.870;4.316;2024-02-23T14:02:11;5.07;;;2.72;;
21786;SDS011;11055;50.870;4.316;2024-02-23T14:04:37;8.77;;;2.75;;
21786;SDS011;11055;50.870;4.316;2024-02-23T14:07:02;6.32;;;2.58;;
21786;SDS011;11055;50.870;4.316;2024-02-23T14:09:29;6.50;;;2.05;;
21786;SDS011;11055;50.870;4.316;2024-02-23T14:11:55;6.47;;;2.35;;
21786;SDS011;11055;50.870;4.316;2024-02-23T14:14:21;4.82;;;1.60;;
21786;SDS011;11055;50.870;4.316;2024-02-23T14:16:48;7.15;;;1.80;;
21786;SDS011;11055;50.870;4.316;2024-02-23T14:19:14;4.18;;;1.63;;
21786;SDS011;11055;50.870;4.316;2024-02-23T14:21:40;5.68;;;1.80;;
21786;SDS011;11055;50.870;4.316;2024-02-23T14:24:06;6.10;;;2.25;;
21786;SDS011;11055;50.870;4.316;2024-02-23T14:26:32;8.80;;;2.40;;
21786;SDS011;11055;50.870;4.316;2024-02-23T14:28:58;6.82;;;2.53;;
21786;SDS011;11055;50.870;4.316;2024-02-23T14:31:24;5.45;;;2.03;;
21786;SDS011;11055;50.870;4.316;2024-02-23T14:33:51;6.40;;;2.28;;
21786;SDS011;11055;50.870;4.316;2024-02-23T14:36:17;4.90;;;1.98;;
21786;SDS011;11055;50.870;4.316;2024-02-23T14:38:43;5.50;;;2.00;;
21786;SDS011;11055;50.870;4.316;2024-02-23T14:41:09;7.57;;;2.75;;
21786;SDS011;11055;50.870;4.316;2024-02-23T14:43:35;9.10;;;3.17;;
21786;SDS011;11055;50.870;4.316;2024-02-23T14:46:01;5.35;;;2.25;;